Time;durP1;ratioP1;P1;durP2;ratioP2;P2;SDS_P1;SDS_P2;PMS_P1;PMS_P2;Temp;Humidity;BMP_temperature;BMP_pressure;BME280_temperature;BME280_humidity;BME280_pressure;Samples;Min_cycle;Max_cycle;Signal;HPM_P1;HPM_P2
2023/07/09 00:01:50;;;;;;;16.70;9.50;;;;;;;16.23;67.37;100673.58;129928;1260;114718;-66
2023/07/09 00:04:53;;;;;;;13.20;9.90;;;;;;;16.20;67.67;100675.63;130030;1276;114769;-65
2023/07/09 00:07:56;;;;;;;14.00;10.00;;;;;;;16.15;67.83;100671.05;130145;1260;114791;-66
2023/07/09 00:10:58;;;;;;;16.20;10.30;;;;;;;16.13;68.47;100675.54;129864;1259;116076;-65
2023/07/09 00:14:00;;;;;;;14.90;10.60;;;;;;;16.12;68.59;100676.14;130027;1257;114717;-66
2023/07/09 00:17:02;;;;;;;13.90;12.00;;;;;;;16.09;68.60;100678.14;130043;1256;115141;-65
2023/07/09 00:20:12;;;;;;;17.10;10.40;;;;;;;16.07;68.86;100673.60;130090;1258;114725;-66
2023/07/09 00:23:16;;;;;;;13.20;10.60;;;;;;;16.04;68.98;100672.32;129694;1260;115166;-66
2023/07/09 00:26:22;;;;;;;14.50;11.30;;;;;;;16.01;69.03;100674.52;130012;1260;127830;-65
2023/07/09 00:29:25;;;;;;;14.70;10.60;;;;;;;15.97;68.94;100676.38;129849;1270;115262;-65
2023/07/09 00:32:28;;;;;;;13.30;10.00;;;;;;;15.92;69.41;100675.96;130131;1259;114724;-66
2023/07/09 00:35:30;;;;;;;11.40;9.60;;;;;;;15.91;69.56;100677.86;130070;1254;115092;-65
2023/07/09 00:38:38;;;;;;;14.50;10.10;;;;;;;15.90;69.78;100677.59;130201;1259;114720;-66
2023/07/09 00:41:41;;;;;;;15.50;9.20;;;;;;;15.87;69.79;100676.20;129688;1263;116233;-65
2023/07/09 00:44:45;;;;;;;12.20;10.10;;;;;;;15.84;70.02;100674.39;130260;1259;115466;-66
2023/07/09 00:47:53;;;;;;;12.10;10.10;;;;;;;15.82;70.23;100669.77;130012;1256;115167;-66
2023/07/09 00:50:57;;;;;;;15.00;9.60;;;;;;;15.80;70.25;100669.17;129790;1263;114894;-66
2023/07/09 00:54:07;;;;;;;15.60;10.90;;;;;;;15.77;70.33;100667.21;130095;1276;115357;-66
2023/07/09 00:57:21;;;;;;;15.70;11.40;;;;;;;15.73;70.47;100665.50;130027;1259;114782;-66
2023/07/09 01:00:42;;;;;;;15.30;10.80;;;;;;;15.68;70.45;100665.11;129638;1276;129715;-65
2023/07/09 01:03:51;;;;;;;13.00;9.60;;;;;;;15.63;70.66;100664.02;129995;1268;115226;-65
2023/07/09 01:06:55;;;;;;;11.60;9.90;;;;;;;15.58;70.66;100661.61;130199;1267;114760;-65
2023/07/09 01:09:58;;;;;;;14.70;10.00;;;;;;;15.54;70.60;100664.22;129811;1259;114925;-65
2023/07/09 01:13:00;;;;;;;14.60;10.80;;;;;;;15.50;70.71;100659.62;129996;1267;114712;-65
2023/07/09 01:16:03;;;;;;;14.30;9.90;;;;;;;15.46;70.78;100666.15;129967;1260;115077;-65
2023/07/09 01:19:06;;;;;;;19.50;10.30;;;;;;;15.41;70.97;100666.45;129941;1260;114906;-65
2023/07/09 01:22:11;;;;;;;14.80;11.80;;;;;;;15.38;71.03;100666.20;130132;1260;114741;-65
2023/07/09 01:25:13;;;;;;;14.00;10.40;;;;;;;15.33;71.10;100664.80;130031;1267;114680;-66
2023/07/09 01:28:16;;;;;;;11.90;9.50;;;;;;;15.29;71.21;100665.09;130122;1266;114717;-65
2023/07/09 01:31:20;;;;;;;14.20;10.20;;;;;;;15.25;71.31;100667.83;130104;1257;115295;-67
2023/07/09 01:34:24;;;;;;;19.40;11.90;;;;;;;15.22;71.28;100674.35;130207;1264;115226;-67
2023/07/09 01:37:27;;;;;;;13.70;10.30;;;;;;;15.18;71.54;100673.49;130671;1258;115399;-65
2023/07/09 01:40:30;;;;;;;16.40;10.80;;;;;;;15.14;71.83;100670.70;130031;1267;115157;-65
2023/07/09 01:43:34;;;;;;;12.50;10.40;;;;;;;15.10;71.91;100669.33;130120;1266;114706;-66
2023/07/09 01:46:37;;;;;;;15.20;10.50;;;;;;;15.07;71.94;100672.96;129804;1270;128388;-66
2023/07/09 01:49:39;;;;;;;13.40;10.30;;;;;;;15.02;72.05;100670.52;129860;1269;114741;-66
2023/07/09 01:52:42;;;;;;;14.20;9.80;;;;;;;14.99;72.00;100670.73;130023;1266;114737;-66
2023/07/09 01:55:45;;;;;;;14.10;10.60;;;;;;;14.94;72.18;100665.24;129670;1257;115421;-65
2023/07/09 01:58:48;;;;;;;14.50;10.20;;;;;;;14.90;72.35;100669.63;130016;1258;114783;-66
2023/07/09 02:01:53;;;;;;;13.10;10.80;;;;;;;14.88;72.64;100679.51;130034;1257;115127;-66
2023/07/09 02:04:56;;;;;;;12.90;10.60;;;;;;;14.86;72.95;100683.75;129952;1258;128760;-66
2023/07/09 02:07:58;;;;;;;19.10;12.20;;;;;;;14.85;73.28;100683.26;130308;1276;115137;-66
2023/07/09 02:11:00;;;;;;;15.20;10.80;;;;;;;14.85;73.61;100683.10;130465;1269;114695;-66
2023/07/09 02:14:02;;;;;;;19.00;12.90;;;;;;;14.85;73.63;100685.09;130382;1257;114763;-66
2023/07/09 02:17:04;;;;;;;16.40;12.00;;;;;;;14.83;73.21;100688.04;130373;1276;114704;-66
2023/07/09 02:20:08;;;;;;;13.80;10.60;;;;;;;14.81;73.27;100686.41;129972;1264;114873;-66
2023/07/09 02:23:10;;;;;;;12.80;10.70;;;;;;;14.79;73.38;100682.77;130253;1258;114802;-66
2023/07/09 02:26:12;;;;;;;14.50;11.40;;;;;;;14.76;73.51;100685.80;130261;1256;114690;-66
2023/07/09 02:29:15;;;;;;;16.60;11.70;;;;;;;14.72;73.59;100683.69;130122;1266;114705;-66
2023/07/09 02:32:19;;;;;;;14.60;11.40;;;;;;;14.69;73.53;100686.58;130617;1264;114802;-66
2023/07/09 02:35:22;;;;;;;16.10;11.20;;;;;;;14.67;73.73;100692.60;131253;1258;114765;-66
2023/07/09 02:38:24;;;;;;;18.40;11.80;;;;;;;14.66;74.00;100697.17;131443;1257;115233;-65
2023/07/09 02:41:27;;;;;;;16.20;12.70;;;;;;;14.64;74.10;100700.19;130229;1257;114756;-67
2023/07/09 02:44:29;;;;;;;18.20;11.20;;;;;;;14.63;74.25;100696.30;130482;1254;115400;-67
2023/07/09 02:47:32;;;;;;;18.40;12.70;;;;;;;14.61;74.22;100694.94;130525;1265;115204;-67
2023/07/09 02:50:34;;;;;;;14.30;11.50;;;;;;;14.63;74.38;100692.34;130600;1266;115370;-67
2023/07/09 02:53:37;;;;;;;14.60;11.40;;;;;;;14.63;74.51;100694.87;130173;1254;114750;-66
2023/07/09 02:56:39;;;;;;;16.80;11.30;;;;;;;14.62;74.68;100695.23;130147;1257;114689;-66
2023/07/09 02:59:42;;;;;;;14.30;11.90;;;;;;;14.63;75.01;100689.80;129805;1276;115103;-65
2023/07/09 03:02:44;;;;;;;16.70;12.00;;;;;;;14.65;74.89;100689.15;130010;1276;114740;-66
2023/07/09 03:05:47;;;;;;;19.70;12.90;;;;;;;14.67;75.07;100692.77;130210;1265;115314;-66
2023/07/09 03:08:51;;;;;;;15.50;12.70;;;;;;;14.70;75.26;100703.60;129978;1276;115137;-65
2023/07/09 03:11:53;;;;;;;18.10;12.30;;;;;;;14.74;75.16;100704.09;130159;1257;114821;-67
2023/07/09 03:14:55;;;;;;;16.20;12.40;;;;;;;14.79;75.09;100701.62;130268;1257;114798;-66
2023/07/09 03:17:58;;;;;;;17.80;12.70;;;;;;;14.86;75.44;100712.55;130029;1257;114698;-67
2023/07/09 03:21:00;;;;;;;18.80;13.50;;;;;;;14.91;75.42;100709.02;130523;1267;115426;-66
2023/07/09 03:24:03;;;;;;;22.40;13.50;;;;;;;14.97;75.58;100704.69;130094;1254;128885;-67
2023/07/09 03:27:06;;;;;;;18.80;13.20;;;;;;;15.04;75.49;100708.36;130323;1258;115335;-67
2023/07/09 03:30:09;;;;;;;16.70;12.90;;;;;;;15.13;75.42;100698.31;130216;1255;305624;-67
2023/07/09 03:33:12;;;;;;;16.70;13.40;;;;;;;15.20;75.45;100688.14;130403;1256;114645;-67
2023/07/09 03:36:14;;;;;;;18.10;13.80;;;;;;;15.27;75.13;100689.13;130254;1276;114733;-66
2023/07/09 03:39:16;;;;;;;16.50;12.50;;;;;;;15.35;75.50;100708.78;130102;1260;114704;-66
2023/07/09 03:42:19;;;;;;;21.60;13.40;;;;;;;15.43;75.19;100703.44;129736;1261;128411;-65
2023/07/09 03:45:21;;;;;;;18.00;13.80;;;;;;;15.50;75.24;100691.09;130184;1257;114725;-66
2023/07/09 03:48:24;;;;;;;17.40;13.10;;;;;;;15.57;75.04;100692.45;130051;1257;114818;-66
2023/07/09 03:51:27;;;;;;;15.80;12.60;;;;;;;15.66;75.08;100696.77;130057;1257;114731;-66
2023/07/09 03:54:29;;;;;;;16.70;13.60;;;;;;;15.74;75.27;100708.31;130115;1257;114789;-66
2023/07/09 03:57:32;;;;;;;21.90;13.00;;;;;;;15.82;75.14;100695.15;129870;1257;115294;-65
2023/07/09 04:00:34;;;;;;;15.20;12.30;;;;;;;15.91;75.09;100695.51;129965;1257;115083;-66
2023/07/09 04:03:37;;;;;;;16.10;12.30;;;;;;;16.02;74.86;100702.55;130101;1254;115528;-65
2023/07/09 04:06:39;;;;;;;16.20;12.70;;;;;;;16.12;74.91;100713.59;129997;1276;115211;-66
2023/07/09 04:09:42;;;;;;;18.40;12.30;;;;;;;16.23;74.87;100713.82;130047;1266;115472;-66
2023/07/09 04:12:45;;;;;;;22.60;13.30;;;;;;;16.34;74.56;100706.95;130531;1257;114765;-65
2023/07/09 04:15:47;;;;;;;14.80;11.90;;;;;;;16.46;74.66;100703.45;130146;1276;114731;-65
2023/07/09 04:18:50;;;;;;;15.00;12.50;;;;;;;16.59;74.45;100706.89;130024;1265;115339;-65
2023/07/09 04:21:52;;;;;;;18.90;12.70;;;;;;;16.70;74.29;100711.35;130054;1257;114725;-66
2023/07/09 04:24:54;;;;;;;15.80;12.00;;;;;;;16.81;74.10;100708.60;130236;1255;114706;-66
2023/07/09 04:27:57;;;;;;;15.70;13.20;;;;;;;16.92;73.83;100717.44;130363;1254;114809;-66
2023/07/09 04:30:59;;;;;;;13.70;11.60;;;;;;;17.03;73.74;100704.23;129792;1254;114862;-66
2023/07/09 04:34:01;;;;;;;15.80;12.20;;;;;;;17.13;73.74;100717.77;130067;1257;114935;-66
2023/07/09 04:37:04;;;;;;;16.70;11.70;;;;;;;17.23;73.49;100725.41;130413;1257;115327;-67
2023/07/09 04:40:10;;;;;;;18.80;12.40;;;;;;;17.33;73.16;100730.11;130493;1257;114723;-67
2023/07/09 04:43:12;;;;;;;15.30;12.60;;;;;;;17.42;73.06;100726.96;130241;1261;127168;-67
2023/07/09 04:46:14;;;;;;;15.70;13.20;;;;;;;17.57;72.86;100731.34;130016;1254;114811;-67
2023/07/09 04:49:17;;;;;;;15.10;12.80;;;;;;;18.13;73.44;100729.39;130475;1257;114750;-67
2023/07/09 04:52:19;;;;;;;16.70;12.70;;;;;;;19.24;73.19;100733.11;130360;1257;114780;-67
2023/07/09 04:55:21;;;;;;;13.80;11.20;;;;;;;20.51;72.42;100730.41;129894;1260;114897;-67
2023/07/09 04:58:23;;;;;;;12.50;10.70;;;;;;;22.01;70.63;100737.70;130175;1267;114778;-66
2023/07/09 05:01:26;;;;;;;14.80;10.30;;;;;;;23.06;69.07;100720.58;129960;1259;114880;-64
2023/07/09 05:04:28;;;;;;;11.50;10.20;;;;;;;24.27;67.14;100729.02;129974;1268;114657;-64
2023/07/09 05:07:32;;;;;;;12.90;10.00;;;;;;;25.49;65.50;100719.83;130379;1257;115250;-65
2023/07/09 05:10:49;;;;;;;11.90;10.00;;;;;;;26.56;63.17;100721.67;130323;1257;114768;-65
2023/07/09 05:13:51;;;;;;;13.90;10.80;;;;;;;27.58;61.00;100719.86;130459;1254;114654;-66
2023/07/09 05:16:53;;;;;;;13.00;10.50;;;;;;;28.44;59.38;100714.09;130392;1257;114763;-65
2023/07/09 05:19:55;;;;;;;16.30;10.30;;;;;;;28.97;57.02;100717.60;130118;1258;114711;-65
2023/07/09 05:22:57;;;;;;;16.80;9.80;;;;;;;29.36;55.37;100717.47;130534;1256;120202;-66
2023/07/09 05:26:01;;;;;;;12.50;9.70;;;;;;;29.82;54.06;100722.18;130304;1267;114721;-65
2023/07/09 05:29:05;;;;;;;10.60;8.80;;;;;;;30.30;52.75;100718.41;130371;1254;114682;-65
2023/07/09 05:32:07;;;;;;;14.10;10.60;;;;;;;30.69;51.02;100726.21;130239;1260;115000;-65
2023/07/09 05:35:09;;;;;;;14.60;9.40;;;;;;;30.92;49.75;100732.34;130241;1276;114889;-65
2023/07/09 05:38:12;;;;;;;13.40;9.30;;;;;;;31.12;48.10;100731.74;130368;1257;114705;-65
2023/07/09 05:41:16;;;;;;;11.40;9.60;;;;;;;31.19;47.30;100729.92;130246;1257;120029;-65
2023/07/09 05:44:18;;;;;;;14.70;9.30;;;;;;;31.33;46.47;100732.45;130397;1257;115045;-65
2023/07/09 05:47:20;;;;;;;9.60;8.50;;;;;;;31.39;45.75;100736.49;130312;1258;114708;-65
2023/07/09 05:50:22;;;;;;;13.80;9.20;;;;;;;31.37;44.82;100739.21;130322;1276;114747;-64
2023/07/09 05:53:25;;;;;;;12.60;9.20;;;;;;;31.32;44.34;100731.80;130369;1276;114783;-65
2023/07/09 05:56:27;;;;;;;10.60;8.70;;;;;;;31.37;43.88;100723.61;130297;1276;114824;-64
2023/07/09 05:59:29;;;;;;;13.10;8.40;;;;;;;31.57;43.76;100722.83;130352;1276;115318;-65
2023/07/09 06:02:31;;;;;;;10.50;8.90;;;;;;;31.77;42.92;100720.48;130314;1257;120171;-65
2023/07/09 06:05:34;;;;;;;14.60;9.10;;;;;;;31.96;42.31;100722.82;129972;1257;114706;-65
2023/07/09 06:08:37;;;;;;;10.60;9.10;;;;;;;32.18;41.70;100726.70;130433;1266;114714;-65
2023/07/09 06:11:39;;;;;;;11.30;8.50;;;;;;;32.46;41.28;100728.02;130321;1276;115324;-65
2023/07/09 06:14:41;;;;;;;12.90;9.40;;;;;;;32.79;40.58;100722.36;130377;1276;114805;-65
2023/07/09 06:17:43;;;;;;;12.80;9.00;;;;;;;33.14;39.90;100722.98;130090;1260;114807;-65
2023/07/09 06:20:49;;;;;;;10.70;8.80;;;;;;;33.45;39.57;100723.77;130304;1254;114741;-65
2023/07/09 06:23:51;;;;;;;9.70;8.20;;;;;;;33.71;39.08;100723.14;129980;1276;114806;-64
2023/07/09 06:26:54;;;;;;;10.40;8.20;;;;;;;34.00;38.82;100724.86;130032;1253;114740;-65
2023/07/09 06:29:56;;;;;;;11.90;8.10;;;;;;;34.37;38.41;100720.30;130192;1257;114778;-65
2023/07/09 06:32:58;;;;;;;12.00;9.00;;;;;;;34.74;37.95;100722.91;130484;1276;114865;-65
2023/07/09 06:36:01;;;;;;;16.40;8.00;;;;;;;35.01;37.37;100719.45;130266;1258;114773;-65
2023/07/09 06:39:03;;;;;;;9.50;8.10;;;;;;;35.18;37.16;100718.50;130210;1276;119060;-65
2023/07/09 06:42:06;;;;;;;14.00;8.70;;;;;;;35.38;36.70;100720.83;130077;1257;114891;-65
2023/07/09 06:45:08;;;;;;;13.50;8.90;;;;;;;35.50;36.43;100720.46;130112;1258;114761;-65
2023/07/09 06:48:10;;;;;;;14.30;8.70;;;;;;;35.64;36.02;100721.81;130197;1256;114833;-64
2023/07/09 06:51:12;;;;;;;15.80;8.60;;;;;;;35.71;35.53;100721.23;130447;1276;114813;-64
2023/07/09 06:54:15;;;;;;;13.20;9.20;;;;;;;35.75;35.23;100716.56;129923;1276;115323;-65
2023/07/09 06:57:17;;;;;;;12.10;7.70;;;;;;;35.70;34.80;100715.98;130154;1259;115071;-64
2023/07/09 07:00:19;;;;;;;12.90;7.80;;;;;;;35.69;34.57;100719.90;130042;1256;114795;-64
2023/07/09 07:03:23;;;;;;;10.80;8.00;;;;;;;35.85;34.62;100717.08;130136;1254;114769;-65
2023/07/09 07:06:25;;;;;;;14.90;9.50;;;;;;;35.99;34.23;100721.55;129981;1259;114909;-67
2023/07/09 07:09:27;;;;;;;11.50;8.20;;;;;;;36.07;33.91;100720.73;130331;1256;114718;-66
2023/07/09 07:12:41;;;;;;;10.00;7.50;;;;;;;36.27;33.91;100720.69;130352;1276;114733;-66
2023/07/09 07:15:47;;;;;;;;;;;;;;;36.47;33.64;100717.31;130337;1256;120247;-67
2023/07/09 07:18:50;;;;;;;9.90;7.60;;;;;;;36.63;32.94;100713.16;130521;1257;114724;-66
2023/07/09 07:21:52;;;;;;;12.50;8.80;;;;;;;36.78;32.65;100712.56;130447;1276;114728;-67
2023/07/09 07:24:54;;;;;;;9.30;7.60;;;;;;;37.03;32.35;100713.96;130373;1253;114775;-66
2023/07/09 07:27:56;;;;;;;8.80;7.30;;;;;;;37.31;31.87;100719.41;130296;1254;115089;-68
2023/07/09 07:31:09;;;;;;;9.60;7.40;;;;;;;37.56;31.47;100714.94;130333;1275;115169;-68
2023/07/09 07:34:11;;;;;;;9.00;7.00;;;;;;;37.80;31.31;100714.23;130065;1257;119290;-67
2023/07/09 07:37:14;;;;;;;8.50;7.70;;;;;;;37.99;31.04;100708.42;130336;1276;114718;-67
2023/07/09 07:40:16;;;;;;;8.60;7.20;;;;;;;38.15;30.56;100706.81;130436;1253;114776;-69
2023/07/09 07:43:18;;;;;;;9.60;7.60;;;;;;;38.34;30.25;100706.55;130028;1260;115032;-69
2023/07/09 07:46:20;;;;;;;11.20;7.00;;;;;;;38.49;29.67;100709.98;130437;1256;115173;-68
2023/07/09 07:49:22;;;;;;;13.60;7.00;;;;;;;38.67;29.71;100702.99;130432;1276;115161;-68
2023/07/09 07:52:25;;;;;;;9.10;7.10;;;;;;;39.00;30.03;100701.58;130296;1258;114731;-69
2023/07/09 07:55:27;;;;;;;8.90;6.50;;;;;;;39.29;29.35;100709.14;130299;1260;119325;-69
2023/07/09 07:58:30;;;;;;;7.40;6.40;;;;;;;39.39;28.83;100712.70;130377;1267;115170;-68
2023/07/09 08:01:34;;;;;;;9.30;6.70;;;;;;;39.36;28.41;100712.10;130395;1276;114782;-68
2023/07/09 08:04:37;;;;;;;10.10;6.00;;;;;;;39.30;28.07;100715.16;130729;1275;114730;-69
2023/07/09 08:07:38;;;;;;;9.40;5.70;;;;;;;39.32;27.77;100716.64;130488;1267;115375;-69
2023/07/09 08:10:40;;;;;;;8.60;5.70;;;;;;;39.30;27.68;100718.73;130355;1256;114733;-68
2023/07/09 08:13:43;;;;;;;7.60;6.20;;;;;;;39.38;27.45;100720.55;130353;1276;120067;-69
2023/07/09 08:16:45;;;;;;;7.70;6.00;;;;;;;39.52;27.60;100726.55;130593;1276;115208;-70
2023/07/09 08:19:52;;;;;;;8.90;5.90;;;;;;;39.56;27.38;100724.59;130594;1276;114801;-70
2023/07/09 08:22:54;;;;;;;8.80;6.50;;;;;;;39.59;27.21;100721.98;130252;1256;114783;-69
2023/07/09 08:25:58;;;;;;;8.60;5.80;;;;;;;39.48;27.00;100726.79;130361;1276;115193;-69
2023/07/09 08:29:00;;;;;;;6.50;5.90;;;;;;;39.38;26.93;100723.46;130251;1257;114756;-69
2023/07/09 08:32:03;;;;;;;9.20;6.40;;;;;;;39.32;26.87;100718.04;130350;1276;114908;-68
2023/07/09 08:35:05;;;;;;;8.50;6.10;;;;;;;39.27;26.75;100716.55;130361;1254;114761;-69
2023/07/09 08:38:07;;;;;;;8.10;6.00;;;;;;;39.05;25.85;100713.03;130321;1257;114705;-68
2023/07/09 08:41:49;;;;;;;13.50;5.70;;;;;;;38.66;25.91;100710.27;130339;1257;114840;-69
2023/07/09 08:45:16;;;;;;;6.70;5.50;;;;;;;38.29;26.29;100707.42;129654;1284;115114;-69
2023/07/09 08:48:47;;;;;;;5.70;5.10;;;;;;;38.13;25.86;100711.80;129686;1284;114954;-68
2023/07/09 08:51:50;;;;;;;6.20;5.50;;;;;;;37.88;26.27;100714.87;128896;1273;120218;-68
2023/07/09 08:54:52;;;;;;;8.30;5.90;;;;;;;37.84;26.13;100713.59;128873;1284;114698;-69
2023/07/09 08:58:00;;;;;;;5.40;4.90;;;;;;;37.72;25.70;100713.49;128923;1291;114856;-69
2023/07/09 09:01:06;;;;;;;8.60;5.90;;;;;;;37.44;26.06;100711.60;129186;1274;114962;-68
2023/07/09 09:04:18;;;;;;;9.80;5.10;;;;;;;37.45;26.41;100710.69;129006;1284;114756;-68
2023/07/09 09:07:41;;;;;;;5.20;4.70;;;;;;;37.53;25.80;100709.71;128915;1291;118978;-68
2023/07/09 09:10:47;;;;;;;6.40;3.90;;;;;;;37.52;25.49;100710.80;129106;1269;114889;-69
2023/07/09 09:13:52;;;;;;;4.70;4.30;;;;;;;37.43;25.01;100706.06;128995;1272;115193;-69
2023/07/09 09:16:55;;;;;;;5.80;4.50;;;;;;;37.40;25.05;100703.41;129051;1273;114808;-67
2023/07/09 09:20:05;;;;;;;8.70;4.30;;;;;;;37.31;24.58;100705.52;129336;1270;115042;-66
2023/07/09 09:23:07;;;;;;;4.20;3.80;;;;;;;37.15;24.23;100704.41;129500;1266;119350;-66
2023/07/09 09:26:17;;;;;;;5.80;4.40;;;;;;;37.00;24.35;100710.27;129894;1264;114898;-66
2023/07/09 09:29:19;;;;;;;4.20;3.40;;;;;;;36.88;24.14;100712.92;130114;1261;115080;-66
2023/07/09 09:32:28;;;;;;;5.60;3.50;;;;;;;36.74;23.38;100716.41;130603;1276;115360;-65
2023/07/09 09:35:33;;;;;;;4.30;3.80;;;;;;;36.49;23.44;100716.72;130527;1276;114676;-66
2023/07/09 09:38:36;;;;;;;3.80;3.50;;;;;;;36.40;23.38;100721.45;130357;1276;118929;-66
2023/07/09 09:41:38;;;;;;;5.70;3.10;;;;;;;36.29;23.44;100720.05;130318;1257;115077;-65
2023/07/09 09:44:44;;;;;;;6.80;3.80;;;;;;;36.05;23.23;100720.99;130347;1254;114753;-66
2023/07/09 09:47:48;;;;;;;5.20;4.00;;;;;;;35.74;23.20;100723.61;130385;1257;114750;-65
2023/07/09 09:50:51;;;;;;;;;;;;;;;35.44;23.53;100719.79;130117;1257;114876;-66
2023/07/09 09:53:58;;;;;;;6.40;3.70;;;;;;;35.22;23.78;100718.69;130334;1270;114811;-66
2023/07/09 09:57:00;;;;;;;4.90;3.80;;;;;;;35.00;23.41;100715.51;130009;1276;114863;-67
2023/07/09 10:00:06;;;;;;;3.80;3.50;;;;;;;34.54;22.68;100717.49;130306;1276;115143;-67
2023/07/09 10:03:08;;;;;;;7.20;3.50;;;;;;;34.01;23.10;100716.82;130289;1276;114816;-67
2023/07/09 10:06:25;;;;;;;5.10;3.80;;;;;;;33.70;23.22;100720.84;130299;1272;114708;-66
2023/07/09 10:09:39;;;;;;;3.90;3.50;;;;;;;33.41;23.96;100720.77;130252;1253;119174;-66
2023/07/09 10:12:53;;;;;;;4.60;3.60;;;;;;;33.21;24.36;100721.15;130221;1276;116529;-66
2023/07/09 10:16:29;;;;;;;4.40;3.50;;;;;;;33.08;24.75;100722.15;130528;1256;114725;-66
2023/07/09 10:19:37;;;;;;;4.00;3.60;;;;;;;33.01;24.58;100724.17;130225;1256;114825;-66
2023/07/09 10:22:43;;;;;;;5.90;3.70;;;;;;;32.83;24.48;100726.94;130154;1276;114789;-68
2023/07/09 10:25:55;;;;;;;6.60;4.10;;;;;;;32.64;24.32;100723.46;130217;1254;121036;-66
2023/07/09 10:29:23;;;;;;;6.50;3.70;;;;;;;32.50;24.82;100721.23;130342;1255;114730;-66
2023/07/09 10:32:46;;;;;;;5.00;3.80;;;;;;;32.35;24.86;100723.38;129630;1281;114917;-66
2023/07/09 10:36:12;;;;;;;6.70;4.00;;;;;;;32.20;24.80;100722.00;129757;1265;114901;-65
2023/07/09 10:39:45;;;;;;;3.70;3.40;;;;;;;32.16;25.23;100717.93;129576;1262;114984;-66
2023/07/09 10:42:51;;;;;;;4.40;3.80;;;;;;;32.15;25.73;100717.24;129630;1284;119292;-66
2023/07/09 10:45:59;;;;;;;5.80;3.80;;;;;;;32.09;25.48;100719.28;129432;1265;114742;-66
2023/07/09 10:49:06;;;;;;;4.20;3.80;;;;;;;31.95;25.28;100721.38;129553;1265;114829;-67
2023/07/09 10:52:38;;;;;;;5.30;3.30;;;;;;;31.83;25.14;100718.02;129433;1266;115309;-67
2023/07/09 10:55:50;;;;;;;5.30;4.20;;;;;;;31.69;25.21;100715.36;129559;1270;114818;-65
2023/07/09 10:59:14;;;;;;;4.40;4.00;;;;;;;31.65;25.83;100717.98;129465;1262;120398;-67
2023/07/09 11:02:26;;;;;;;4.70;3.60;;;;;;;31.63;25.88;100717.23;129501;1265;114930;-66
2023/07/09 11:05:29;;;;;;;5.00;4.50;;;;;;;31.64;26.11;100710.34;129356;1262;114799;-66
2023/07/09 11:08:35;;;;;;;4.80;3.90;;;;;;;31.65;26.40;100711.63;129598;1254;114956;-66
2023/07/09 11:11:42;;;;;;;5.20;3.50;;;;;;;31.67;26.36;100710.73;130053;1262;114805;-67
2023/07/09 11:14:59;;;;;;;4.90;3.90;;;;;;;31.62;26.10;100713.48;129938;1256;119313;-67
2023/07/09 11:18:04;;;;;;;4.10;3.50;;;;;;;31.51;25.77;100705.79;130368;1268;115171;-69
2023/07/09 11:21:16;;;;;;;5.40;4.00;;;;;;;31.40;26.03;100697.98;129993;1260;114827;-67
2023/07/09 11:24:31;;;;;;;5.10;3.80;;;;;;;31.36;26.40;100698.39;130319;1257;114837;-68
2023/07/09 11:27:33;;;;;;;4.70;3.70;;;;;;;31.32;26.30;100703.23;130501;1257;115166;-68
2023/07/09 11:30:55;;;;;;;4.50;4.10;;;;;;;31.25;26.31;100702.04;130568;1257;114881;-67
2023/07/09 11:34:12;;;;;;;6.10;4.40;;;;;;;31.17;26.25;100700.59;130286;1259;114772;-68
2023/07/09 11:37:16;;;;;;;5.30;3.70;;;;;;;31.08;26.30;100702.66;130459;1264;114777;-69
2023/07/09 11:40:19;;;;;;;6.80;4.30;;;;;;;31.04;26.37;100702.08;130188;1259;114903;-66
2023/07/09 11:43:35;;;;;;;5.70;4.20;;;;;;;31.00;26.49;100696.09;130001;1256;114738;-67
2023/07/09 11:47:01;;;;;;;4.70;3.70;;;;;;;30.98;26.84;100695.00;130435;1276;119957;-67
2023/07/09 11:50:10;;;;;;;4.70;3.70;;;;;;;30.99;27.21;100689.70;130461;1259;115302;-67
2023/07/09 11:53:32;;;;;;;6.00;3.80;;;;;;;31.02;27.22;100686.31;130097;1255;115031;-66
2023/07/09 11:56:34;;;;;;;6.10;3.90;;;;;;;31.02;27.58;100689.16;130126;1262;114901;-67
2023/07/09 11:59:41;;;;;;;5.60;4.00;;;;;;;31.02;27.16;100682.57;130428;1254;115215;-67
2023/07/09 12:02:43;;;;;;;6.80;4.00;;;;;;;31.01;27.12;100682.27;130248;1257;120214;-66
2023/07/09 12:06:19;;;;;;;4.10;3.30;;;;;;;30.98;26.95;100679.30;130266;1257;115260;-66
2023/07/09 12:09:21;;;;;;;5.90;3.50;;;;;;;30.98;27.19;100675.00;130324;1256;114794;-67
2023/07/09 12:12:25;;;;;;;4.50;4.10;;;;;;;30.98;27.10;100674.23;130331;1276;115462;-63
2023/07/09 12:15:29;;;;;;;5.90;4.60;;;;;;;30.91;27.00;100671.21;129972;1276;114736;-64
2023/07/09 12:18:31;;;;;;;4.80;4.20;;;;;;;30.82;27.35;100668.67;129772;1261;119208;-66
2023/07/09 12:21:38;;;;;;;7.00;3.80;;;;;;;30.79;27.82;100668.85;130030;1276;114715;-64
2023/07/09 12:24:42;;;;;;;4.90;4.10;;;;;;;30.78;27.99;100662.50;130049;1256;114795;-64
2023/07/09 12:27:44;;;;;;;5.00;4.20;;;;;;;30.76;27.95;100661.41;129774;1276;115196;-68
2023/07/09 12:30:51;;;;;;;5.40;4.10;;;;;;;30.75;27.68;100666.41;130338;1256;114702;-63
2023/07/09 12:33:55;;;;;;;4.40;3.60;;;;;;;30.71;27.56;100658.77;129849;1261;119394;-63
2023/07/09 12:36:57;;;;;;;5.60;3.70;;;;;;;30.67;27.43;100654.56;129971;1276;114942;-63
2023/07/09 12:40:01;;;;;;;5.60;4.50;;;;;;;30.65;27.57;100656.45;130046;1257;114741;-63
2023/07/09 12:43:04;;;;;;;6.80;4.20;;;;;;;30.66;27.72;100650.84;130077;1276;115199;-62
2023/07/09 12:46:06;;;;;;;4.50;3.40;;;;;;;30.65;27.49;100646.08;129992;1276;114850;-62
2023/07/09 12:49:30;;;;;;;7.20;4.00;;;;;;;30.62;27.48;100644.77;130072;1276;115070;-62
2023/07/09 12:52:32;;;;;;;4.70;4.30;;;;;;;30.62;27.56;100642.82;129917;1276;115154;-64
2023/07/09 12:55:40;;;;;;;6.20;4.50;;;;;;;30.59;27.63;100642.42;129766;1276;114741;-62
2023/07/09 12:58:43;;;;;;;4.60;3.40;;;;;;;30.59;27.83;100638.04;129886;1254;115990;-62
2023/07/09 13:02:09;;;;;;;6.10;4.40;;;;;;;30.60;27.52;100636.27;129657;1276;116359;-64
2023/07/09 13:05:20;;;;;;;4.10;3.70;;;;;;;30.57;27.35;100634.48;129594;1254;119183;-65
2023/07/09 13:08:24;;;;;;;5.60;4.30;;;;;;;30.53;27.25;100629.74;129959;1257;114734;-62
2023/07/09 13:11:35;;;;;;;6.10;4.20;;;;;;;30.49;27.27;100625.28;129982;1276;114695;-64
2023/07/09 13:14:37;;;;;;;4.10;3.60;;;;;;;30.49;27.38;100628.05;129953;1276;114680;-62
2023/07/09 13:17:42;;;;;;;4.50;4.10;;;;;;;30.50;27.40;100630.73;129907;1276;114705;-69
2023/07/09 13:20:48;;;;;;;4.50;3.60;;;;;;;30.51;27.33;100627.65;130259;1258;121060;-61
2023/07/09 13:23:55;;;;;;;4.70;3.90;;;;;;;30.50;26.92;100624.76;130145;1267;114806;-61
2023/07/09 13:26:59;;;;;;;4.00;3.60;;;;;;;30.50;27.05;100620.45;130086;1272;114795;-61
2023/07/09 13:30:01;;;;;;;9.60;4.40;;;;;;;30.51;27.30;100624.45;129776;1261;115003;-64
2023/07/09 13:33:08;;;;;;;3.80;3.40;;;;;;;30.52;27.37;100622.71;130008;1276;114744;-61
2023/07/09 13:36:12;;;;;;;5.60;3.70;;;;;;;30.51;27.10;100618.07;130078;1256;120255;-62
2023/07/09 13:39:15;;;;;;;7.00;3.60;;;;;;;30.50;27.11;100618.57;129846;1256;114775;-62
2023/07/09 13:42:17;;;;;;;4.40;3.70;;;;;;;30.47;26.79;100617.18;130303;1256;115208;-61
2023/07/09 13:45:23;;;;;;;6.20;3.80;;;;;;;30.44;27.12;100615.59;130036;1270;115466;-61
2023/07/09 13:48:26;;;;;;;6.30;3.80;;;;;;;30.44;27.67;100615.94;130104;1275;115192;-61
2023/07/09 13:51:29;;;;;;;4.10;3.70;;;;;;;30.45;27.32;100617.30;129989;1276;119919;-62
2023/07/09 13:54:35;;;;;;;6.70;3.60;;;;;;;30.46;26.98;100620.62;129991;1276;114829;-63